createdAt,value
2023-02-22T00:02:10.912Z,56.38
2023-02-22T00:04:37.488Z,56.72
2023-02-22T00:07:03.874Z,57.31
2023-02-22T00:09:30.249Z,57.28
2023-02-22T00:11:56.656Z,57.09
2023-02-22T00:14:23.097Z,57.62
2023-02-22T00:16:49.497Z,57.32
2023-02-22T00:19:15.946Z,57.76
2023-02-22T00:21:42.363Z,57.80
2023-02-22T00:24:08.755Z,57.15
2023-02-22T00:26:35.169Z,57.41
2023-02-22T00:29:01.577Z,57.39
2023-02-22T00:31:28.090Z,57.15
2023-02-22T00:33:54.554Z,57.53
2023-02-22T00:36:20.927Z,57.19
2023-02-22T00:38:47.322Z,56.31
2023-02-22T00:41:13.734Z,56.73
2023-02-22T00:43:40.125Z,55.32
2023-02-22T00:46:06.564Z,55.29
2023-02-22T00:48:33.030Z,54.94
2023-02-22T00:50:59.427Z,54.24
2023-02-22T00:53:25.825Z,54.46
2023-02-22T00:55:52.349Z,54.56
2023-02-22T00:58:18.770Z,54.22
2023-02-22T01:00:45.171Z,54.40
2023-02-22T01:03:11.565Z,54.76
2023-02-22T01:05:38.160Z,54.85
2023-02-22T01:08:04.704Z,54.99
2023-02-22T01:10:31.123Z,54.68
2023-02-22T01:12:57.511Z,55.23
2023-02-22T01:15:23.932Z,54.70
2023-02-22T01:17:50.415Z,54.36
2023-02-22T01:20:16.826Z,55.23
2023-02-22T01:22:43.290Z,55.27
2023-02-22T01:25:09.692Z,56.42
2023-02-22T01:27:36.076Z,56.83
2023-02-22T01:30:02.479Z,57.24
2023-02-22T01:32:28.871Z,57.79
2023-02-22T01:34:55.289Z,57.82
2023-02-22T01:37:21.672Z,57.93
2023-02-22T01:39:48.044Z,58.75
2023-02-22T01:42:14.427Z,59.41
2023-02-22T01:44:40.813Z,58.73
2023-02-22T01:47:07.207Z,58.53
2023-02-22T01:49:33.614Z,59.39
2023-02-22T01:51:59.982Z,59.78
2023-02-22T01:54:26.382Z,59.40
2023-02-22T01:56:52.780Z,60.38
2023-02-22T01:59:19.158Z,59.74
2023-02-22T02:01:45.589Z,60.00
2023-02-22T02:04:12.051Z,59.51
2023-02-22T02:06:38.480Z,60.34
2023-02-22T02:09:04.882Z,59.26
2023-02-22T02:11:31.257Z,59.73
2023-02-22T02:13:57.654Z,60.53
2023-02-22T02:16:24.180Z,59.73
2023-02-22T02:18:50.591Z,59.23
2023-02-22T02:21:17.256Z,59.67
2023-02-22T02:23:43.807Z,60.23
2023-02-22T02:26:10.205Z,60.33
2023-02-22T02:28:36.587Z,59.71
2023-02-22T02:31:03.031Z,59.75
2023-02-22T02:33:29.435Z,60.45
2023-02-22T02:35:55.862Z,60.24
2023-02-22T02:38:22.300Z,60.84
2023-02-22T02:40:48.748Z,60.26
2023-02-22T02:43:15.141Z,60.98
2023-02-22T02:45:41.543Z,60.30
2023-02-22T02:48:07.963Z,60.64
2023-02-22T02:50:34.383Z,60.63
2023-02-22T02:53:00.769Z,60.63
2023-02-22T02:55:27.167Z,60.80
2023-02-22T02:57:53.610Z,61.38
2023-02-22T03:00:20.006Z,60.95
2023-02-22T03:02:46.397Z,61.11
2023-02-22T03:05:12.772Z,61.90
2023-02-22T03:07:39.266Z,62.15
2023-02-22T03:10:05.708Z,61.43
2023-02-22T03:12:32.090Z,61.60
2023-02-22T03:14:58.505Z,61.90
2023-02-22T03:17:24.897Z,62.57
2023-02-22T03:19:51.270Z,62.59
2023-02-22T03:22:17.776Z,62.93
2023-02-22T03:24:44.161Z,62.86
2023-02-22T03:27:10.544Z,62.56
2023-02-22T03:29:36.964Z,63.22
2023-02-22T03:32:03.501Z,63.36
2023-02-22T03:34:29.987Z,63.12
2023-02-22T03:36:56.395Z,63.36
2023-02-22T03:39:22.776Z,63.21
2023-02-22T03:41:49.197Z,63.59
2023-02-22T03:44:15.689Z,63.16
2023-02-22T03:46:42.153Z,63.30
2023-02-22T03:49:08.646Z,62.85
2023-02-22T03:51:35.044Z,63.55
2023-02-22T03:54:01.467Z,63.67
2023-02-22T03:56:27.870Z,63.63
2023-02-22T03:58:54.299Z,63.44
2023-02-22T04:01:20.731Z,63.13
2023-02-22T04:03:47.249Z,62.50
2023-02-22T04:06:13.668Z,62.68
2023-02-22T04:08:40.063Z,63.14
2023-02-22T04:11:06.487Z,63.51
2023-02-22T04:13:32.880Z,63.36
2023-02-22T04:15:59.374Z,63.41
2023-02-22T04:18:25.825Z,63.88
2023-02-22T04:20:52.254Z,63.70
2023-02-22T04:23:18.639Z,63.86
2023-02-22T04:25:45.053Z,64.25
2023-02-22T04:28:11.463Z,64.25
2023-02-22T04:30:37.925Z,65.08
2023-02-22T04:33:04.377Z,64.94
2023-02-22T04:35:30.796Z,64.94
2023-02-22T04:37:57.202Z,65.18
2023-02-22T04:40:23.583Z,64.53
2023-02-22T04:42:49.981Z,64.75
2023-02-22T04:45:16.403Z,65.56
2023-02-22T04:47:42.788Z,65.19
2023-02-22T04:50:09.217Z,66.03
2023-02-22T04:52:35.642Z,65.80
2023-02-22T04:55:02.067Z,65.15
2023-02-22T04:57:28.442Z,65.49
2023-02-22T04:59:54.855Z,65.67
2023-02-22T05:02:21.305Z,66.12
2023-02-22T05:04:47.789Z,66.34
2023-02-22T05:07:14.207Z,65.62
2023-02-22T05:09:40.594Z,66.34
2023-02-22T05:12:06.973Z,65.78
2023-02-22T05:14:33.374Z,65.98
2023-02-22T05:16:59.809Z,65.37
2023-02-22T05:19:26.228Z,65.40
2023-02-22T05:21:52.612Z,66.17
2023-02-22T05:24:19.028Z,65.70
2023-02-22T05:26:45.451Z,65.29
2023-02-22T05:29:11.850Z,66.68
2023-02-22T05:31:38.339Z,66.55
2023-02-22T05:34:04.790Z,66.05
2023-02-22T05:36:31.297Z,65.91
2023-02-22T05:38:57.681Z,66.26
2023-02-22T05:41:24.212Z,66.63
2023-02-22T05:43:50.619Z,66.18
2023-02-22T05:46:17.044Z,66.33
2023-02-22T05:48:43.463Z,66.88
2023-02-22T05:51:09.868Z,66.61
2023-02-22T05:53:36.269Z,66.96
2023-02-22T05:56:02.666Z,66.82
2023-02-22T05:58:29.139Z,67.09
2023-02-22T06:00:55.516Z,66.92
2023-02-22T06:03:21.932Z,67.22
2023-02-22T06:05:48.448Z,67.22
2023-02-22T06:08:14.904Z,66.85
2023-02-22T06:10:41.306Z,66.50
2023-02-22T06:13:07.725Z,66.76
2023-02-22T06:15:34.120Z,66.75
2023-02-22T06:18:00.550Z,66.85
2023-02-22T06:20:26.944Z,67.59
2023-02-22T06:22:53.343Z,67.23
2023-02-22T06:25:19.767Z,66.90
2023-02-22T06:27:46.164Z,66.97
2023-02-22T06:30:13.421Z,68.58
2023-02-22T06:32:39.939Z,67.65
2023-02-22T06:35:06.359Z,68.57
2023-02-22T06:37:32.797Z,67.79
2023-02-22T06:40:04.732Z,67.98
2023-02-22T06:42:31.665Z,68.04
2023-02-22T06:44:58.111Z,67.93
2023-02-22T06:47:24.497Z,67.95
2023-02-22T06:49:50.900Z,68.54
2023-02-22T06:52:17.340Z,68.36
2023-02-22T06:54:43.760Z,67.91
2023-02-22T06:57:10.221Z,68.43
2023-02-22T06:59:36.607Z,69.49
2023-02-22T07:02:03.079Z,69.33
2023-02-22T07:04:29.477Z,69.29
2023-02-22T07:06:55.901Z,68.79
2023-02-22T07:09:22.305Z,69.14
2023-02-22T07:11:48.706Z,67.88
2023-02-22T07:14:15.131Z,68.56
2023-02-22T07:16:41.600Z,68.80
2023-02-22T07:19:08.105Z,68.57
2023-02-22T07:21:34.510Z,68.67
2023-02-22T07:24:00.914Z,69.15
2023-02-22T07:26:27.350Z,68.80
2023-02-22T07:28:53.780Z,69.82
2023-02-22T07:31:20.248Z,69.23
2023-02-22T07:33:46.689Z,67.59
2023-02-22T07:36:13.137Z,67.28
2023-02-22T07:38:39.518Z,67.12
2023-02-22T07:41:05.911Z,67.83
2023-02-22T07:43:32.346Z,68.08
2023-02-22T07:45:58.837Z,67.67
2023-02-22T07:48:25.329Z,68.48
2023-02-22T07:50:51.751Z,68.74
2023-02-22T07:53:18.187Z,68.37
2023-02-22T07:55:44.578Z,68.49
2023-02-22T07:58:11.018Z,69.24
2023-02-22T08:00:37.471Z,70.31
2023-02-22T08:03:03.924Z,70.58
2023-02-22T08:05:30.395Z,70.05
2023-02-22T08:07:56.825Z,70.09
2023-02-22T08:10:23.281Z,70.12
2023-02-22T08:12:49.719Z,69.73
2023-02-22T08:15:16.145Z,69.11
2023-02-22T08:17:42.554Z,69.43
2023-02-22T08:20:08.988Z,68.25
2023-02-22T08:22:35.411Z,67.65
2023-02-22T08:25:01.880Z,67.24
2023-02-22T08:27:28.316Z,66.87
2023-02-22T08:29:54.747Z,66.49
2023-02-22T08:32:21.383Z,65.84
2023-02-22T08:34:47.869Z,65.64
2023-02-22T08:37:14.296Z,64.80
2023-02-22T08:39:40.707Z,63.95
2023-02-22T08:42:07.119Z,64.17
2023-02-22T08:44:33.627Z,64.73
2023-02-22T08:47:00.011Z,64.78
2023-02-22T08:49:26.402Z,63.73
2023-02-22T08:51:52.794Z,62.95
2023-02-22T08:54:19.216Z,63.81
2023-02-22T08:56:45.633Z,63.76
2023-02-22T08:59:12.186Z,63.44
2023-02-22T09:01:39.021Z,63.33
2023-02-22T09:04:05.774Z,63.25
2023-02-22T09:06:32.260Z,62.76
2023-02-22T09:08:58.676Z,63.33
2023-02-22T09:11:25.095Z,62.89
2023-02-22T09:13:51.522Z,64.29
2023-02-22T09:16:17.945Z,63.77
2023-02-22T09:18:44.730Z,63.14
2023-02-22T09:21:11.136Z,64.34
2023-02-22T09:23:37.591Z,64.53
2023-02-22T09:26:04.043Z,64.80
2023-02-22T09:28:30.453Z,64.68
2023-02-22T09:30:56.878Z,64.38
2023-02-22T09:33:23.309Z,64.74
2023-02-22T09:35:49.754Z,63.71
2023-02-22T09:38:16.170Z,63.63
2023-02-22T09:40:42.626Z,62.62
2023-02-22T09:43:09.068Z,62.79
2023-02-22T09:45:35.601Z,62.56
2023-02-22T09:48:11.708Z,61.96
2023-02-22T09:50:45.798Z,60.94
2023-02-22T09:53:12.198Z,60.80
2023-02-22T09:55:38.620Z,60.30
2023-02-22T09:58:05.102Z,60.10
2023-02-22T10:00:31.607Z,59.54
2023-02-22T10:02:58.133Z,59.45
2023-02-22T10:05:24.598Z,58.68
2023-02-22T10:07:51.039Z,58.55
2023-02-22T10:10:17.502Z,58.08
2023-02-22T10:12:43.918Z,58.89
2023-02-22T10:15:10.349Z,58.53
2023-02-22T10:17:36.759Z,58.56
2023-02-22T10:20:03.178Z,58.25
2023-02-22T10:22:29.606Z,57.95
2023-02-22T10:24:56.133Z,57.03
2023-02-22T10:27:22.563Z,57.88
2023-02-22T10:29:50.128Z,58.00
2023-02-22T10:32:17.870Z,58.31
2023-02-22T10:34:45.356Z,58.33
2023-02-22T10:37:11.803Z,58.35
2023-02-22T10:39:38.569Z,58.14
2023-02-22T10:42:06.161Z,58.74
2023-02-22T10:44:33.723Z,57.86
2023-02-22T10:47:00.151Z,58.56
2023-02-22T10:49:26.564Z,57.74
2023-02-22T10:51:53.501Z,57.88
2023-02-22T10:54:20.100Z,57.91
2023-02-22T10:56:46.687Z,57.81
2023-02-22T10:59:13.278Z,56.99
2023-02-22T11:01:39.889Z,57.23
2023-02-22T11:04:06.458Z,56.48
2023-02-22T11:06:34.069Z,56.23
2023-02-22T11:09:00.701Z,56.25
2023-02-22T11:11:27.117Z,56.01
2023-02-22T11:13:53.538Z,56.14
2023-02-22T11:16:20.042Z,56.01
2023-02-22T11:18:47.073Z,56.12
2023-02-22T11:21:14.654Z,56.06
2023-02-22T11:23:44.735Z,55.83
2023-02-22T11:26:11.420Z,55.77
2023-02-22T11:28:38.458Z,56.11
2023-02-22T11:31:05.097Z,55.50
2023-02-22T11:33:31.695Z,54.81
2023-02-22T11:35:59.238Z,55.06
2023-02-22T11:38:25.825Z,55.44
2023-02-22T11:40:53.421Z,55.37
2023-02-22T11:43:21.013Z,54.76
2023-02-22T11:45:57.780Z,55.17
2023-02-22T11:48:26.301Z,55.44
2023-02-22T11:50:52.777Z,55.62
2023-02-22T11:53:19.498Z,55.01
2023-02-22T11:55:46.088Z,55.25
2023-02-22T11:58:13.774Z,54.20
2023-02-22T12:00:41.282Z,54.02
2023-02-22T12:03:07.871Z,53.72
2023-02-22T12:05:34.305Z,54.01
2023-02-22T12:08:13.772Z,53.89
2023-02-22T12:10:45.719Z,54.05
2023-02-22T12:13:12.202Z,53.21
2023-02-22T12:15:38.694Z,54.18
2023-02-22T12:18:05.486Z,53.23
2023-02-22T12:20:33.122Z,53.13
2023-02-22T12:22:59.752Z,53.69
2023-02-22T12:25:26.588Z,53.94
2023-02-22T12:27:53.048Z,53.61
2023-02-22T12:30:19.537Z,53.06
2023-02-22T12:32:48.090Z,53.41
2023-02-22T12:35:14.713Z,53.00
2023-02-22T12:37:41.329Z,52.95
2023-02-22T12:40:08.920Z,53.22
2023-02-22T12:42:35.362Z,53.19
2023-02-22T12:45:02.131Z,53.47
2023-02-22T12:47:29.065Z,53.30
2023-02-22T12:49:57.290Z,53.20
2023-02-22T12:52:23.680Z,53.05
2023-02-22T12:54:50.125Z,53.37
2023-02-22T12:57:17.065Z,54.13
2023-02-22T12:59:43.703Z,53.64
2023-02-22T13:02:10.302Z,53.11
2023-02-22T13:04:36.938Z,53.41
2023-02-22T13:07:03.361Z,53.27
2023-02-22T13:09:29.810Z,53.20
2023-02-22T13:11:56.233Z,53.29
2023-02-22T13:14:22.705Z,53.72
2023-02-22T13:16:49.864Z,53.96
2023-02-22T13:19:16.463Z,53.52
2023-02-22T13:21:42.953Z,53.79
2023-02-22T13:24:09.433Z,54.02
2023-02-22T13:26:36.209Z,54.01
2023-02-22T13:29:02.870Z,54.31
2023-02-22T13:31:29.355Z,54.40
2023-02-22T13:33:56.022Z,54.27
2023-02-22T13:36:22.444Z,55.29
2023-02-22T13:38:49.206Z,55.03
2023-02-22T13:41:17.163Z,55.77
2023-02-22T13:43:43.781Z,55.32
2023-02-22T13:46:10.209Z,55.70
2023-02-22T13:48:37.589Z,55.88
2023-02-22T13:51:04.043Z,56.03
2023-02-22T13:53:30.464Z,57.85
2023-02-22T13:55:57.022Z,59.01
2023-02-22T13:58:23.422Z,60.11
2023-02-22T14:00:49.822Z,61.50
2023-02-22T14:03:18.251Z,62.83
2023-02-22T14:05:44.935Z,63.52
2023-02-22T14:08:11.492Z,64.54
2023-02-22T14:10:37.898Z,65.23
2023-02-22T14:13:04.340Z,65.98
2023-02-22T14:15:31.448Z,66.16
2023-02-22T14:17:58.950Z,66.38
2023-02-22T14:20:25.395Z,67.46
2023-02-22T14:22:52.334Z,66.91
2023-02-22T14:25:27.999Z,67.87
2023-02-22T14:27:55.371Z,68.26
2023-02-22T14:30:21.803Z,68.24
2023-02-22T14:32:48.759Z,68.82
2023-02-22T14:35:26.461Z,69.10
2023-02-22T14:37:55.824Z,69.81
2023-02-22T14:40:23.413Z,69.44
2023-02-22T14:42:51.186Z,69.81
2023-02-22T14:45:18.011Z,69.41
2023-02-22T14:47:45.247Z,69.67
2023-02-22T14:50:11.687Z,70.62
2023-02-22T14:52:38.502Z,70.18
2023-02-22T14:55:06.124Z,70.65
2023-02-22T14:57:34.905Z,70.68
2023-02-22T15:00:01.367Z,70.88
2023-02-22T15:02:27.846Z,71.22
2023-02-22T15:04:54.391Z,71.26
2023-02-22T15:07:20.819Z,70.47
2023-02-22T15:09:47.726Z,70.91
2023-02-22T15:12:14.394Z,71.08
2023-02-22T15:14:41.983Z,70.67
2023-02-22T15:17:08.429Z,70.33
2023-02-22T15:19:35.300Z,70.86
2023-02-22T15:22:01.732Z,70.51
2023-02-22T15:24:28.567Z,70.58
2023-02-22T15:27:02.128Z,70.28
2023-02-22T15:29:29.767Z,70.44
2023-02-22T15:31:56.251Z,69.77
2023-02-22T15:34:22.710Z,69.40
2023-02-22T15:36:49.546Z,70.38
2023-02-22T15:39:17.149Z,70.40
2023-02-22T15:41:43.989Z,70.17
2023-02-22T15:44:22.769Z,70.07
2023-02-22T15:46:51.007Z,69.75
2023-02-22T15:49:17.541Z,70.01
2023-02-22T15:51:44.199Z,69.71
2023-02-22T15:54:18.350Z,69.29
2023-02-22T15:56:52.465Z,69.94
2023-02-22T15:59:22.340Z,69.76
2023-02-22T16:01:48.833Z,70.08
2023-02-22T16:04:16.297Z,70.32
2023-02-22T16:06:43.914Z,70.51
2023-02-22T16:09:10.505Z,71.05
2023-02-22T16:11:37.401Z,71.08
2023-02-22T16:14:04.804Z,70.97
2023-02-22T16:16:32.327Z,70.65
2023-02-22T16:18:59.159Z,71.44
2023-02-22T16:21:25.578Z,70.93
2023-02-22T16:23:53.067Z,71.31
2023-02-22T16:26:19.929Z,71.56
2023-02-22T16:28:46.370Z,71.90
2023-02-22T16:31:12.861Z,71.33
2023-02-22T16:33:41.393Z,71.42
2023-02-22T16:36:09.198Z,71.86
2023-02-22T16:38:36.680Z,71.90
2023-02-22T16:41:04.289Z,72.25
2023-02-22T16:43:31.899Z,71.94
2023-02-22T16:45:59.517Z,72.21
2023-02-22T16:48:27.058Z,71.82
2023-02-22T16:50:54.657Z,71.96
2023-02-22T16:53:22.263Z,72.12
2023-02-22T16:55:49.912Z,72.83
2023-02-22T16:58:17.527Z,72.90
2023-02-22T17:00:46.126Z,72.08
2023-02-22T17:03:13.717Z,72.46
2023-02-22T17:05:42.334Z,72.74
2023-02-22T17:08:08.788Z,72.63
2023-02-22T17:10:36.477Z,72.79
2023-02-22T17:13:16.395Z,72.47
2023-02-22T17:15:48.803Z,72.13
2023-02-22T17:18:16.436Z,72.95
2023-02-22T17:20:43.975Z,72.58
2023-02-22T17:23:11.561Z,72.67
2023-02-22T17:25:39.155Z,72.67
2023-02-22T17:28:07.752Z,72.91
2023-02-22T17:30:35.390Z,73.47
2023-02-22T17:33:02.956Z,73.42
2023-02-22T17:35:30.544Z,73.21
2023-02-22T17:37:58.128Z,73.90
2023-02-22T17:40:24.727Z,73.47
2023-02-22T17:42:51.314Z,72.89
2023-02-22T17:45:18.906Z,73.55
2023-02-22T17:47:45.503Z,73.75
2023-02-22T17:50:12.112Z,73.44
2023-02-22T17:52:39.691Z,73.78
2023-02-22T17:55:06.263Z,73.93
2023-02-22T17:57:33.863Z,73.94
2023-02-22T18:00:00.460Z,74.25
2023-02-22T18:02:27.120Z,73.81
2023-02-22T18:04:53.969Z,73.94
2023-02-22T18:07:20.376Z,73.90
2023-02-22T18:09:46.920Z,74.08
2023-02-22T18:12:13.356Z,73.88
2023-02-22T18:14:39.791Z,74.44
2023-02-22T18:17:06.790Z,74.64
2023-02-22T18:19:33.317Z,74.42
2023-02-22T18:21:59.714Z,74.45
2023-02-22T18:24:26.137Z,74.76
2023-02-22T18:26:52.997Z,74.63
2023-02-22T18:29:20.582Z,74.60
2023-02-22T18:31:48.167Z,74.66
2023-02-22T18:34:15.811Z,74.80
2023-02-22T18:36:43.390Z,74.32
2023-02-22T18:39:09.973Z,75.02
2023-02-22T18:41:38.594Z,75.13
2023-02-22T18:44:06.175Z,74.68
2023-02-22T18:46:32.785Z,74.79
2023-02-22T18:48:59.374Z,74.69
2023-02-22T18:51:27.933Z,74.72
2023-02-22T18:53:55.557Z,74.88
2023-02-22T18:56:22.394Z,74.89
2023-02-22T18:58:48.923Z,74.75
2023-02-22T19:01:15.336Z,75.12
2023-02-22T19:03:42.156Z,75.33
2023-02-22T19:06:09.522Z,75.27
2023-02-22T19:08:37.138Z,75.29
2023-02-22T19:11:06.912Z,75.26
2023-02-22T19:13:34.701Z,75.58
2023-02-22T19:16:02.031Z,75.94
2023-02-22T19:18:28.495Z,75.55
2023-02-22T19:20:55.147Z,75.63
2023-02-22T19:23:22.740Z,75.18
2023-02-22T19:25:49.333Z,75.23
2023-02-22T19:28:15.772Z,75.16
2023-02-22T19:30:42.557Z,75.23
2023-02-22T19:33:09.014Z,75.25
2023-02-22T19:35:35.683Z,75.66
2023-02-22T19:38:02.265Z,75.22
2023-02-22T19:40:29.864Z,75.31
2023-02-22T19:42:56.575Z,75.58
2023-02-22T19:45:24.073Z,75.93
2023-02-22T19:47:51.655Z,76.50
2023-02-22T19:50:19.265Z,76.02
2023-02-22T19:52:45.872Z,75.50
2023-02-22T19:55:12.294Z,75.45
2023-02-22T19:57:39.048Z,75.25
2023-02-22T20:00:05.657Z,76.32
2023-02-22T20:02:33.367Z,76.45
2023-02-22T20:05:00.817Z,76.82
2023-02-22T20:07:27.228Z,76.70
2023-02-22T20:09:54.065Z,76.96
2023-02-22T20:12:20.502Z,76.80
2023-02-22T20:14:48.275Z,76.48
2023-02-22T20:17:15.862Z,76.62
2023-02-22T20:19:43.451Z,76.44
2023-02-22T20:22:10.057Z,75.45
2023-02-22T20:24:37.675Z,76.14
2023-02-22T20:27:05.285Z,76.30
2023-02-22T20:29:32.929Z,75.90
2023-02-22T20:32:00.628Z,76.15
2023-02-22T20:34:28.091Z,75.78
2023-02-22T20:36:54.665Z,75.96
2023-02-22T20:39:21.384Z,75.86
2023-02-22T20:41:48.129Z,75.79
2023-02-22T20:44:15.439Z,75.58
2023-02-22T20:46:43.084Z,75.51
2023-02-22T20:49:10.636Z,75.83
2023-02-22T20:51:37.237Z,75.98
2023-02-22T20:54:03.846Z,74.92
2023-02-22T20:56:30.418Z,75.40
2023-02-22T20:58:58.032Z,75.80
2023-02-22T21:01:25.674Z,76.57
2023-02-22T21:03:54.224Z,76.42
2023-02-22T21:06:21.064Z,77.27
2023-02-22T21:08:49.426Z,76.62
2023-02-22T21:11:18.483Z,77.39
2023-02-22T21:13:46.602Z,77.43
2023-02-22T21:16:15.216Z,77.46
2023-02-22T21:18:44.191Z,77.30
2023-02-22T21:21:12.441Z,76.82
2023-02-22T21:23:40.032Z,77.12
2023-02-22T21:26:07.587Z,76.64
2023-02-22T21:28:50.557Z,76.32
2023-02-22T21:31:19.410Z,76.25
2023-02-22T21:33:47.504Z,75.86
2023-02-22T21:36:16.463Z,76.03
2023-02-22T21:38:44.705Z,76.16
2023-02-22T21:41:12.370Z,76.26
2023-02-22T21:43:39.886Z,76.20
2023-02-22T21:46:08.511Z,76.28
2023-02-22T21:48:37.660Z,75.87
2023-02-22T21:51:05.670Z,76.01
2023-02-22T21:53:34.405Z,75.91
2023-02-22T21:56:03.348Z,75.64
2023-02-22T21:58:31.640Z,75.71
2023-02-22T22:01:00.709Z,75.85
2023-02-22T22:03:28.718Z,76.27
2023-02-22T22:05:57.306Z,76.10
2023-02-22T22:08:26.174Z,74.87
2023-02-22T22:10:53.503Z,75.44
2023-02-22T22:13:22.103Z,75.98
2023-02-22T22:15:50.749Z,76.04
2023-02-22T22:18:18.296Z,75.74
2023-02-22T22:20:47.114Z,75.72
2023-02-22T22:23:15.505Z,75.87
2023-02-22T22:25:44.092Z,75.21
2023-02-22T22:28:12.716Z,75.52
2023-02-22T22:30:41.937Z,76.23
2023-02-22T22:33:11.288Z,76.14
2023-02-22T22:35:38.477Z,76.09
2023-02-22T22:38:07.093Z,76.22
2023-02-22T22:40:36.188Z,76.63
2023-02-22T22:43:03.264Z,76.27
2023-02-22T22:45:31.873Z,76.00
2023-02-22T22:47:59.497Z,76.25
2023-02-22T22:50:27.037Z,75.91
2023-02-22T22:52:57.170Z,76.16
2023-02-22T22:55:24.324Z,76.66
2023-02-22T22:57:51.823Z,76.34
2023-02-22T23:00:20.433Z,76.43
2023-02-22T23:02:49.131Z,76.84
2023-02-22T23:05:18.549Z,76.61
2023-02-22T23:07:45.460Z,76.48
2023-02-22T23:10:13.312Z,76.74
2023-02-22T23:12:41.891Z,77.04
2023-02-22T23:15:11.172Z,76.77
2023-02-22T23:17:38.163Z,77.08
2023-02-22T23:20:05.736Z,76.77
2023-02-22T23:22:32.517Z,76.79
2023-02-22T23:25:01.474Z,76.85
2023-02-22T23:27:29.535Z,76.75
2023-02-22T23:29:58.142Z,76.94
2023-02-22T23:32:24.730Z,77.46
2023-02-22T23:34:51.528Z,77.94
2023-02-22T23:37:20.545Z,78.14
2023-02-22T23:39:47.714Z,78.10
2023-02-22T23:42:14.322Z,77.79
2023-02-22T23:44:40.780Z,78.11
2023-02-22T23:47:08.598Z,77.45
2023-02-22T23:49:36.181Z,77.67
2023-02-22T23:52:03.742Z,77.31
2023-02-22T23:54:31.343Z,77.52
2023-02-22T23:56:58.920Z,77.28
2023-02-22T23:59:26.553Z,77.23
